Time;durP1;ratioP1;P1;durP2;ratioP2;P2;SDS_P1;SDS_P2;PMS_P1;PMS_P2;Temp;Humidity;BMP_temperature;BMP_pressure;BME280_temperature;BME280_humidity;BME280_pressure;Samples;Min_cycle;Max_cycle;Signal;HPM_P1;HPM_P2
2021/06/18 00:00:42;;;;;;;7.25;6.68;;;19.70;99.90;;;20.80;68.12;97640.00;5257728;28;20224;-60
2021/06/18 00:03:17;;;;;;;7.10;6.50;;;19.70;99.90;;;20.69;68.04;97641.63;5265537;28;20239;-60
2021/06/18 00:05:50;;;;;;;6.93;6.32;;;19.60;99.90;;;20.64;68.84;97635.47;5265722;28;20219;-60
2021/06/18 00:08:23;;;;;;;7.45;6.72;;;19.60;99.90;;;20.58;67.09;97641.44;5266817;28;20513;-59
2021/06/18 00:10:56;;;;;;;6.95;6.55;;;19.60;99.90;;;20.50;67.33;97637.84;5264022;28;20674;-60
2021/06/18 00:13:29;;;;;;;7.20;6.70;;;19.50;99.90;;;20.49;67.10;97643.91;5265515;28;20184;-60
2021/06/18 00:16:02;;;;;;;7.30;6.82;;;19.40;99.90;;;20.37;67.27;97635.91;5258420;28;20230;-60
2021/06/18 00:18:39;;;;;;;7.13;6.65;;;19.40;99.90;;;20.30;68.01;97634.09;5266723;28;20188;-60
2021/06/18 00:21:12;;;;;;;7.30;6.70;;;19.30;99.90;;;20.22;69.21;97637.41;5257536;28;20305;-59
2021/06/18 00:23:45;;;;;;;7.50;6.90;;;19.30;99.90;;;20.21;68.66;97643.47;5257775;28;20608;-61
2021/06/18 00:26:18;;;;;;;7.45;6.85;;;19.30;99.90;;;20.18;68.32;97638.25;5259026;28;20212;-60
2021/06/18 00:28:52;;;;;;;7.75;7.05;;;19.30;99.90;;;20.20;68.04;97640.84;5266641;28;20668;-59
2021/06/18 00:31:25;;;;;;;8.07;7.38;;;19.30;99.90;;;20.14;67.58;97638.16;5266428;28;20190;-58
2021/06/18 00:33:59;;;;;;;7.40;6.85;;;19.20;99.90;;;20.14;68.21;97635.56;5265362;28;20200;-60
2021/06/18 00:36:32;;;;;;;7.63;7.03;;;19.30;99.90;;;20.19;68.99;97634.78;5266426;28;20211;-59
2021/06/18 00:39:06;;;;;;;7.35;6.85;;;19.30;99.90;;;20.13;68.56;97637.28;5265647;28;20195;-60
2021/06/18 00:41:39;;;;;;;7.25;6.65;;;19.20;99.90;;;20.14;68.30;97627.78;5262110;28;20685;-61
2021/06/18 00:44:12;;;;;;;7.50;6.90;;;19.20;99.90;;;20.15;68.35;97634.72;5265410;28;20214;-60
2021/06/18 00:46:45;;;;;;;7.20;6.55;;;19.20;99.90;;;20.11;68.55;97630.31;5263215;28;20318;-62
2021/06/18 00:49:21;;;;;;;7.53;6.95;;;19.10;99.90;;;20.12;68.59;97630.34;5266457;28;20581;-60
2021/06/18 00:51:56;;;;;;;7.47;6.88;;;19.10;99.90;;;20.11;69.00;97632.91;5264284;28;20195;-59
2021/06/18 00:54:29;;;;;;;7.63;7.03;;;19.10;99.90;;;20.08;68.87;97632.88;5271138;28;20201;-59
2021/06/18 00:57:03;;;;;;;7.10;6.50;;;19.10;99.90;;;20.10;68.26;97637.25;5264741;28;20591;-59
2021/06/18 00:59:36;;;;;;;7.38;6.82;;;19.00;99.90;;;20.02;67.57;97633.66;5266681;28;20554;-60
2021/06/18 01:02:10;;;;;;;7.70;6.93;;;19.00;99.90;;;19.94;67.99;97637.81;5265459;28;20219;-59
2021/06/18 01:04:44;;;;;;;7.40;6.70;;;19.00;99.90;;;19.78;68.46;97624.63;5265188;28;20196;-59
2021/06/18 01:07:23;;;;;;;7.20;6.70;;;18.80;99.90;;;19.72;68.08;97623.66;5262722;28;20568;-60
2021/06/18 01:10:13;;;;;;;7.45;6.72;;;18.70;99.90;;;19.66;69.41;97618.31;5268405;28;20202;-58
2021/06/18 01:13:00;;;;;;;7.25;6.57;;;18.80;99.90;;;19.66;69.64;97632.19;5264657;28;20200;-60
2021/06/18 01:15:44;;;;;;;8.25;7.55;;;18.80;99.90;;;19.68;69.39;97634.78;5277759;28;20216;-60
2021/06/18 01:18:24;;;;;;;7.60;6.90;;;18.80;99.90;;;19.68;69.28;97635.66;5266651;28;20241;-60
2021/06/18 01:21:17;;;;;;;7.80;7.30;;;18.80;99.90;;;19.64;69.85;97631.25;5267876;28;20211;-60
2021/06/18 01:24:00;;;;;;;7.43;6.93;;;18.80;99.90;;;19.62;69.07;97627.75;5254996;28;20196;-60
2021/06/18 01:26:57;;;;;;;7.70;7.10;;;18.70;99.90;;;19.64;69.75;97626.06;5268591;28;20211;-59
2021/06/18 01:29:36;;;;;;;7.50;6.88;;;18.70;99.90;;;19.66;69.61;97627.00;5269492;28;20278;-58
2021/06/18 01:32:15;;;;;;;6.88;6.38;;;18.70;99.90;;;19.65;69.19;97626.94;5267960;28;20200;-60
2021/06/18 01:34:52;;;;;;;7.53;6.93;;;18.80;99.90;;;19.67;69.16;97631.34;5266304;28;20226;-59
2021/06/18 01:37:29;;;;;;;7.97;7.32;;;18.70;99.90;;;19.61;69.98;97638.97;5264148;28;20537;-60
2021/06/18 01:40:09;;;;;;;8.00;7.30;;;18.70;99.90;;;19.63;69.79;97637.28;5269310;28;20214;-59
2021/06/18 01:42:44;;;;;;;9.68;7.68;;;18.70;99.90;;;19.59;70.60;97644.13;5268225;28;20215;-60
2021/06/18 01:45:22;;;;;;;7.82;7.22;;;18.80;99.90;;;19.51;70.76;97650.00;5268392;28;20217;-60
2021/06/18 01:47:57;;;;;;;7.35;6.80;;;18.70;99.90;;;19.46;70.41;97651.63;5268951;28;20210;-60
2021/06/18 01:50:33;;;;;;;7.55;6.97;;;18.60;99.90;;;19.50;70.51;97656.06;5267202;28;20198;-59
2021/06/18 01:53:10;;;;;;;8.18;7.47;;;18.60;99.90;;;19.47;69.62;97643.91;5268216;28;20206;-60
2021/06/18 01:55:45;;;;;;;7.70;7.07;;;18.40;99.90;;;19.42;70.10;97660.22;5266751;28;20218;-59
2021/06/18 01:58:20;;;;;;;7.20;6.70;;;18.30;99.90;;;19.36;70.39;97654.06;5268481;28;20191;-60
2021/06/18 02:00:56;;;;;;;7.85;7.32;;;18.30;99.90;;;19.26;71.12;97649.56;5267991;28;20225;-60
2021/06/18 02:03:31;;;;;;;7.68;7.10;;;18.20;99.90;;;19.22;71.07;97647.75;5268316;28;20614;-59
2021/06/18 02:06:07;;;;;;;7.82;7.15;;;18.10;99.90;;;19.18;71.21;97651.13;5266453;28;20211;-61
2021/06/18 02:08:41;;;;;;;7.15;6.65;;;18.10;99.90;;;19.12;71.50;97649.28;5266922;28;20202;-60
2021/06/18 02:11:15;;;;;;;8.07;7.47;;;18.10;99.90;;;19.04;70.82;97647.41;5268220;28;20188;-60
2021/06/18 02:13:48;;;;;;;7.60;6.90;;;18.00;99.90;;;18.96;71.30;97648.94;5267057;28;20687;-59
2021/06/18 02:16:25;;;;;;;7.57;6.97;;;18.00;99.90;;;19.02;70.47;97643.88;5265376;28;20216;-60
2021/06/18 02:18:59;;;;;;;7.13;6.28;;;18.10;99.90;;;18.99;70.12;97643.81;5268586;28;20303;-60
2021/06/18 02:21:33;;;;;;;7.32;6.70;;;18.10;99.90;;;18.97;70.00;97649.00;5264430;28;20227;-60
2021/06/18 02:24:08;;;;;;;7.18;6.68;;;18.10;99.90;;;18.94;69.84;97646.31;5267827;28;20648;-59
2021/06/18 02:26:42;;;;;;;7.43;6.53;;;18.00;99.90;;;18.85;70.20;97652.19;5267427;28;20221;-59
2021/06/18 02:29:15;;;;;;;6.65;6.15;;;17.90;99.90;;;18.73;70.98;97646.72;5268271;28;20192;-58
2021/06/18 02:31:52;;;;;;;6.80;6.30;;;17.80;99.90;;;18.73;70.16;97645.84;5266812;28;20192;-61
2021/06/18 02:34:25;;;;;;;7.60;6.97;;;17.70;99.90;;;18.52;71.69;97646.25;5267395;28;20195;-59
2021/06/18 02:36:58;;;;;;;7.45;6.82;;;17.60;99.90;;;18.51;71.59;97644.50;5267272;28;20574;-60
2021/06/18 02:39:31;;;;;;;7.63;7.13;;;17.60;99.90;;;18.48;71.38;97639.25;5267037;28;20200;-59
2021/06/18 02:42:05;;;;;;;7.13;6.57;;;17.60;99.90;;;18.41;71.58;97641.69;5267415;28;20230;-59
2021/06/18 02:44:39;;;;;;;7.50;7.00;;;17.60;99.90;;;18.42;71.70;97645.16;5263316;28;20236;-60
2021/06/18 02:47:21;;;;;;;7.38;6.88;;;17.50;99.90;;;18.49;72.89;97643.59;5267564;28;20681;-60
2021/06/18 02:49:57;;;;;;;7.35;6.85;;;17.60;99.90;;;18.44;72.00;97649.53;5261617;28;20192;-60
2021/06/18 02:52:42;;;;;;;7.00;6.45;;;17.60;99.90;;;18.44;72.30;97656.44;5267648;28;20188;-60
2021/06/18 02:55:19;;;;;;;8.05;7.45;;;17.60;99.90;;;18.49;71.93;97656.56;5255649;28;20273;-59
2021/06/18 02:57:58;;;;;;;7.30;6.80;;;17.60;99.90;;;18.44;71.55;97659.88;5267271;28;20196;-60
2021/06/18 03:00:32;;;;;;;7.95;7.35;;;17.50;99.90;;;18.43;72.72;97652.97;5266171;28;20266;-59
2021/06/18 03:03:10;;;;;;;8.73;7.93;;;17.60;99.90;;;18.30;72.75;97655.25;5263706;28;20235;-60
2021/06/18 03:05:47;;;;;;;8.73;8.07;;;17.40;99.90;;;18.26;75.27;97654.31;5267181;28;20207;-60
2021/06/18 03:08:22;;;;;;;9.32;8.43;;;17.40;99.90;;;18.24;73.04;97661.16;5267395;28;20200;-60
2021/06/18 03:10:57;;;;;;;8.75;8.05;;;17.40;99.90;;;18.14;74.84;97656.56;5263583;28;20664;-59
2021/06/18 03:13:36;;;;;;;8.68;8.07;;;17.30;99.90;;;18.11;74.84;97664.25;5267010;28;20187;-59
2021/06/18 03:16:12;;;;;;;8.77;8.00;;;17.30;99.90;;;18.06;74.20;97665.88;5266164;28;20697;-60
2021/06/18 03:18:50;;;;;;;8.70;8.00;;;17.20;99.90;;;18.08;74.38;97664.19;5265273;28;20195;-59
2021/06/18 03:21:24;;;;;;;8.32;7.72;;;17.30;99.90;;;18.17;74.19;97664.41;5267245;28;20191;-59
2021/06/18 03:24:00;;;;;;;8.82;8.20;;;17.40;99.90;;;18.20;73.27;97660.22;5266594;28;20204;-60
2021/06/18 03:26:34;;;;;;;8.57;7.90;;;17.40;99.90;;;18.17;74.13;97669.56;5267132;28;20227;-59
2021/06/18 03:29:08;;;;;;;8.75;8.02;;;17.40;99.90;;;18.23;73.91;97669.75;5265269;28;20192;-59
2021/06/18 03:31:43;;;;;;;8.52;7.93;;;17.40;99.90;;;18.12;73.72;97666.03;5265222;28;20192;-59
2021/06/18 03:34:18;;;;;;;9.35;8.68;;;17.30;99.90;;;18.00;74.04;97664.91;5266485;28;20686;-59
2021/06/18 03:36:52;;;;;;;8.60;7.95;;;17.20;99.90;;;17.99;74.71;97676.06;5266139;28;20570;-60
2021/06/18 03:39:26;;;;;;;8.98;8.20;;;17.20;99.90;;;18.00;74.23;97680.41;5266963;28;20198;-57
2021/06/18 03:42:01;;;;;;;9.75;8.88;;;17.20;99.90;;;18.01;74.31;97679.56;5266296;28;20215;-60
2021/06/18 03:44:34;;;;;;;10.20;9.15;;;17.20;99.90;;;18.07;75.08;97680.56;5265879;28;20225;-58
2021/06/18 03:47:09;;;;;;;9.60;8.88;;;17.30;99.90;;;18.14;75.43;97679.84;5266966;28;20192;-59
2021/06/18 03:49:46;;;;;;;9.75;9.02;;;17.40;99.90;;;18.17;75.30;97685.09;5262185;28;20195;-59
2021/06/18 03:52:19;;;;;;;8.75;8.15;;;17.40;99.90;;;18.18;74.97;97677.41;5264522;28;20195;-60
2021/06/18 03:54:52;;;;;;;8.70;8.10;;;17.40;99.90;;;18.28;74.36;97686.25;5266805;28;20215;-60
2021/06/18 03:57:25;;;;;;;8.48;7.88;;;17.50;99.90;;;18.21;72.71;97671.41;5265772;28;20192;-59
2021/06/18 04:00:01;;;;;;;8.57;7.93;;;17.40;99.90;;;18.18;72.72;97679.97;5266834;28;20744;-59
2021/06/18 04:02:34;;;;;;;8.20;7.50;;;17.30;99.90;;;18.26;72.47;97677.59;5264756;28;20635;-60
2021/06/18 04:05:14;;;;;;;7.65;7.05;;;17.50;99.90;;;18.39;72.70;97682.19;5266438;28;20215;-59
2021/06/18 04:07:50;;;;;;;7.55;6.95;;;17.70;99.90;;;18.57;71.04;97701.56;5262727;28;20660;-60
2021/06/18 04:10:23;;;;;;;8.85;8.05;;;17.60;99.90;;;18.57;73.08;97740.41;5263687;28;20200;-59
2021/06/18 04:12:56;;;;;;;7.75;7.05;;;17.60;99.90;;;18.62;71.05;97731.03;5265956;28;20573;-58
2021/06/18 04:15:30;;;;;;;7.68;7.13;;;17.50;99.90;;;18.46;72.68;97722.06;5266360;28;20212;-59
2021/06/18 04:18:05;;;;;;;8.43;7.65;;;17.50;99.90;;;18.36;71.81;97723.53;5266831;28;20227;-60
2021/06/18 04:20:40;;;;;;;8.85;8.00;;;17.40;99.90;;;18.36;71.07;97720.94;5258010;28;20585;-65
2021/06/18 04:23:13;;;;;;;8.60;7.80;;;17.40;99.90;;;18.26;74.02;97724.16;5262199;28;20245;-64
2021/06/18 04:25:46;;;;;;;8.40;7.75;;;17.40;99.90;;;18.34;73.55;97713.97;5267628;28;20220;-64
2021/06/18 04:28:19;;;;;;;8.55;7.85;;;17.50;99.90;;;18.39;73.01;97702.91;5266473;28;20191;-65
2021/06/18 04:30:53;;;;;;;8.20;7.60;;;17.60;99.90;;;18.38;72.08;97688.22;5265881;28;20192;-65
2021/06/18 04:33:26;;;;;;;9.00;8.27;;;17.50;99.90;;;18.40;72.64;97678.78;5265541;28;20188;-65
2021/06/18 04:36:00;;;;;;;8.73;8.05;;;17.60;99.90;;;18.53;72.43;97658.34;5266054;28;20212;-65
2021/06/18 04:38:37;;;;;;;7.95;7.30;;;17.70;99.90;;;18.56;72.76;97656.69;5260813;28;20196;-65
2021/06/18 04:41:10;;;;;;;8.60;8.00;;;17.70;99.90;;;18.63;72.30;97662.91;5258724;28;20659;-64
2021/06/18 04:43:43;;;;;;;9.38;8.50;;;17.80;99.90;;;18.97;72.83;97674.00;5266135;28;20212;-64
2021/06/18 04:46:16;;;;;;;8.10;7.60;;;18.20;99.90;;;19.51;70.25;97697.56;5267205;28;20216;-65
2021/06/18 04:48:49;;;;;;;8.20;7.55;;;18.60;99.90;;;20.32;66.23;97695.56;5270052;28;20196;-65
2021/06/18 04:51:24;;;;;;;8.23;7.55;;;19.20;99.90;;;20.95;64.24;97693.06;5262749;28;20188;-65
2021/06/18 04:53:57;;;;;;;9.10;8.40;;;19.80;99.90;;;21.44;62.28;97701.50;5266168;28;20192;-65
2021/06/18 04:56:30;;;;;;;9.27;8.68;;;20.40;99.90;;;21.84;60.98;97705.38;5265606;28;20215;-64
2021/06/18 04:59:03;;;;;;;8.88;8.18;;;20.60;99.90;;;22.36;59.56;97715.44;5264239;28;20212;-64
2021/06/18 05:01:36;;;;;;;8.98;8.18;;;21.00;99.90;;;22.66;57.72;97714.78;5260719;28;20192;-65
2021/06/18 05:04:09;;;;;;;9.70;8.77;;;21.20;99.90;;;22.90;57.45;97699.28;5262203;28;20216;-65
2021/06/18 05:06:43;;;;;;;8.45;7.68;;;21.40;99.90;;;23.27;56.04;97691.69;5268980;28;20214;-64
2021/06/18 05:09:16;;;;;;;7.85;7.07;;;22.10;98.80;;;23.76;54.81;97712.75;5269937;28;20191;-65
2021/06/18 05:11:49;;;;;;;8.68;7.88;;;22.60;98.30;;;24.06;53.99;97724.09;5268741;28;20241;-65
2021/06/18 05:14:22;;;;;;;7.90;7.30;;;22.60;98.30;;;24.16;53.34;97728.47;5268334;28;20184;-65
2021/06/18 05:16:55;;;;;;;7.90;7.30;;;22.40;97.70;;;24.53;52.52;97719.81;5268684;28;20225;-64
2021/06/18 05:19:29;;;;;;;7.80;7.20;;;22.60;97.80;;;24.83;51.21;97709.31;5266035;28;20254;-65
2021/06/18 05:22:04;;;;;;;7.97;7.38;;;23.30;96.40;;;25.21;50.52;97710.09;5269840;28;20196;-65
2021/06/18 05:24:37;;;;;;;7.38;6.78;;;23.50;96.00;;;25.49;50.30;97722.19;5267518;28;20218;-65
2021/06/18 05:27:10;;;;;;;7.22;6.63;;;23.50;96.10;;;25.85;49.83;97720.31;5269589;28;20198;-66
2021/06/18 05:29:43;;;;;;;7.18;6.68;;;23.80;95.70;;;25.94;49.11;97732.47;5269189;28;20195;-66
2021/06/18 05:32:17;;;;;;;7.22;6.72;;;23.90;95.70;;;25.40;50.25;97727.47;5267279;28;20188;-66
2021/06/18 05:34:51;;;;;;;7.18;6.47;;;23.70;96.00;;;25.81;49.82;97726.41;5267384;28;20630;-66
2021/06/18 05:37:26;;;;;;;7.45;6.95;;;23.60;96.30;;;26.41;48.48;97729.53;5269101;28;20196;-65
2021/06/18 05:39:59;;;;;;;7.05;6.45;;;23.80;95.90;;;26.50;48.68;97731.25;5268064;28;20308;-66
2021/06/18 05:42:32;;;;;;;7.15;6.55;;;24.10;95.70;;;26.55;47.18;97734.66;5265841;28;20324;-65
2021/06/18 05:45:06;;;;;;;6.57;6.07;;;24.10;94.70;;;26.80;47.62;97740.56;5268974;28;20212;-66
2021/06/18 05:47:39;;;;;;;6.82;6.32;;;24.40;95.20;;;27.12;46.90;97748.09;5269160;28;20198;-66
2021/06/18 05:50:13;;;;;;;6.80;6.35;;;24.70;94.10;;;27.17;47.05;97750.72;5269219;28;20198;-65
2021/06/18 05:52:48;;;;;;;7.50;6.80;;;24.80;94.60;;;27.35;45.87;97745.25;5268274;28;20234;-65
2021/06/18 05:55:21;;;;;;;7.05;6.47;;;24.90;93.90;;;27.55;45.79;97752.91;5268400;28;20217;-66
2021/06/18 05:57:54;;;;;;;6.72;6.15;;;25.10;94.00;;;27.80;45.04;97747.38;5269052;28;20648;-66
2021/06/18 06:00:27;;;;;;;6.32;5.93;;;25.30;92.90;;;28.11;44.16;97745.19;5266966;28;20199;-66
2021/06/18 06:03:13;;;;;;;6.38;5.88;;;25.70;92.80;;;28.33;43.33;97751.00;5264287;28;20218;-66
2021/06/18 06:05:46;;;;;;;7.30;6.60;;;25.90;92.10;;;28.61;43.10;97748.78;5266382;28;20226;-66
2021/06/18 06:08:21;;;;;;;6.60;6.10;;;26.00;91.90;;;28.87;42.17;97739.56;5266822;28;20640;-66
2021/06/18 06:10:54;;;;;;;6.85;6.18;;;26.10;91.60;;;29.13;41.58;97744.38;5268459;28;20647;-65
2021/06/18 06:13:27;;;;;;;6.85;6.22;;;26.30;91.50;;;29.42;41.53;97743.84;5267637;28;20195;-62
2021/06/18 06:16:00;;;;;;;6.22;5.63;;;26.60;90.90;;;29.43;40.68;97750.84;5266694;28;20214;-62
2021/06/18 06:18:33;;;;;;;6.15;5.65;;;26.50;90.70;;;29.91;40.65;97742.81;5267648;28;20245;-62
2021/06/18 06:21:06;;;;;;;6.65;5.97;;;26.80;90.60;;;29.69;41.10;97736.28;5264816;28;20237;-62
2021/06/18 06:23:41;;;;;;;6.03;5.63;;;26.90;90.60;;;30.21;39.86;97746.56;5265213;28;20211;-62
2021/06/18 06:26:14;;;;;;;6.63;6.00;;;27.00;90.30;;;30.56;39.41;97747.47;5266942;28;20218;-62
2021/06/18 06:28:47;;;;;;;7.05;6.45;;;27.30;90.00;;;30.78;39.18;97747.81;5267151;28;20201;-62
2021/06/18 06:31:20;;;;;;;5.85;5.35;;;27.60;89.40;;;31.07;38.19;97747.06;5267966;28;20631;-62
2021/06/18 06:33:53;;;;;;;6.53;5.95;;;28.00;88.20;;;31.26;38.39;97744.78;5271437;28;20199;-63
2021/06/18 06:36:26;;;;;;;6.38;5.85;;;28.20;88.60;;;31.06;38.60;97745.34;5265202;28;20386;-63
2021/06/18 06:39:02;;;;;;;6.20;5.70;;;28.20;88.30;;;31.53;37.81;97743.16;5263485;28;20574;-63
2021/06/18 06:41:35;;;;;;;6.03;5.50;;;28.30;87.50;;;32.28;36.39;97751.50;5266857;28;20203;-63
2021/06/18 06:44:08;;;;;;;7.05;5.60;;;28.70;86.10;;;32.30;36.62;97757.59;5265724;28;20310;-62
2021/06/18 06:46:41;;;;;;;6.32;5.72;;;29.00;86.60;;;32.80;35.68;97743.66;5262209;28;20230;-63
2021/06/18 06:49:14;;;;;;;6.40;5.90;;;29.30;83.90;;;32.67;35.93;97750.28;5267032;28;20230;-63
2021/06/18 06:51:47;;;;;;;7.22;5.63;;;29.70;83.20;;;32.92;34.61;97743.22;5267310;28;20201;-62
2021/06/18 06:54:25;;;;;;;6.40;5.90;;;29.80;82.90;;;33.00;34.92;97743.00;5264872;28;20211;-62
2021/06/18 06:56:58;;;;;;;6.60;6.10;;;29.90;82.60;;;33.49;34.31;97737.72;5266929;28;20195;-63
2021/06/18 06:59:31;;;;;;;6.45;5.95;;;30.10;81.60;;;33.47;33.72;97732.47;5266079;28;20691;-63
2021/06/18 07:02:05;;;;;;;6.57;5.95;;;30.30;80.60;;;33.86;33.81;97737.22;5265823;28;20326;-63
2021/06/18 07:04:38;;;;;;;6.18;5.68;;;30.50;80.60;;;33.54;33.84;97736.66;5266146;28;20253;-63
2021/06/18 07:07:12;;;;;;;6.40;5.78;;;30.70;80.10;;;33.99;33.86;97738.47;5265748;28;20218;-63
2021/06/18 07:09:47;;;;;;;5.95;5.50;;;30.90;79.20;;;34.14;33.77;97738.81;5266629;28;20197;-62
2021/06/18 07:12:20;;;;;;;6.68;6.10;;;31.10;79.20;;;34.36;33.14;97736.16;5264282;28;20199;-63
2021/06/18 07:14:55;;;;;;;7.22;6.00;;;30.90;78.80;;;34.57;32.14;97737.97;5266486;28;20218;-63
2021/06/18 07:17:28;;;;;;;6.45;5.85;;;31.10;78.00;;;34.71;32.16;97732.97;5269107;28;20220;-63
2021/06/18 07:20:02;;;;;;;6.15;5.65;;;31.50;77.20;;;34.80;31.96;97734.34;5265926;28;20600;-63
2021/06/18 07:22:35;;;;;;;6.47;5.97;;;31.40;76.60;;;35.04;31.46;97737.75;5265732;28;20663;-63
2021/06/18 07:25:10;;;;;;;6.50;5.90;;;31.40;76.30;;;35.13;31.61;97737.38;5265997;28;20239;-63
2021/06/18 07:27:44;;;;;;;6.20;5.47;;;31.60;76.50;;;35.31;31.04;97738.34;5265094;28;20187;-63
2021/06/18 07:30:19;;;;;;;6.28;5.78;;;31.60;76.30;;;35.21;31.64;97734.38;5266822;28;20199;-63
2021/06/18 07:32:52;;;;;;;6.97;6.38;;;31.50;77.20;;;35.13;31.27;97734.69;5263800;28;20207;-63
2021/06/18 07:35:26;;;;;;;6.75;6.25;;;31.60;75.90;;;35.49;31.07;97738.47;5265752;28;20233;-63
2021/06/18 07:37:59;;;;;;;6.40;5.90;;;32.00;75.50;;;35.42;31.44;97733.41;5266191;28;20206;-63
2021/06/18 07:40:34;;;;;;;6.13;5.63;;;32.00;75.00;;;35.49;31.47;97722.50;5265917;28;20199;-63
2021/06/18 07:43:07;;;;;;;6.43;5.72;;;32.00;75.50;;;35.67;31.00;97726.16;5258617;28;20203;-63
2021/06/18 07:45:40;;;;;;;6.32;5.78;;;32.30;74.90;;;35.57;30.85;97720.38;5266076;28;20230;-63
2021/06/18 07:48:13;;;;;;;6.40;5.90;;;32.30;74.20;;;35.92;30.43;97725.88;5266300;28;20572;-63
2021/06/18 07:50:47;;;;;;;5.97;5.53;;;32.60;73.40;;;36.16;30.41;97724.69;5265754;28;20219;-63
2021/06/18 07:53:20;;;;;;;6.28;5.78;;;32.80;73.30;;;36.46;29.89;97727.66;5265655;28;20192;-63
2021/06/18 07:55:54;;;;;;;6.72;6.10;;;32.80;73.20;;;36.72;29.47;97729.06;5264863;28;20207;-63
2021/06/18 07:58:27;;;;;;;6.53;6.03;;;32.90;72.90;;;36.65;28.92;97732.94;5264846;28;20285;-63
2021/06/18 08:01:01;;;;;;;6.45;5.95;;;33.00;72.50;;;37.11;28.41;97721.75;5257492;28;20191;-63
2021/06/18 08:03:34;;;;;;;6.15;5.57;;;32.90;72.50;;;37.25;28.39;97719.22;5265267;28;20540;-63
2021/06/18 08:06:07;;;;;;;6.53;5.80;;;33.10;72.00;;;37.31;28.79;97720.72;5265350;28;20223;-65
2021/06/18 08:08:40;;;;;;;6.45;5.95;;;33.40;71.90;;;37.41;28.29;97721.94;5264876;28;20187;-63
2021/06/18 08:11:15;;;;;;;6.85;6.35;;;33.40;72.10;;;37.48;28.72;97720.69;5265712;28;20561;-63
2021/06/18 08:13:48;;;;;;;6.72;6.22;;;33.60;71.50;;;37.63;26.91;97716.31;5265002;28;20659;-63
2021/06/18 08:16:21;;;;;;;6.20;5.75;;;33.40;70.30;;;37.71;27.75;97707.91;5268719;28;20207;-63
2021/06/18 08:18:54;;;;;;;6.95;6.35;;;33.40;71.00;;;37.85;27.46;97705.34;5269742;28;20191;-63
2021/06/18 08:21:28;;;;;;;6.57;6.00;;;33.60;70.70;;;37.89;27.46;97709.56;5269971;28;20290;-63
2021/06/18 08:24:01;;;;;;;7.05;5.90;;;33.80;70.90;;;37.44;28.20;97705.78;5269237;28;20670;-63
2021/06/18 08:26:35;;;;;;;6.35;5.72;;;33.70;70.30;;;37.23;28.72;97701.59;5269402;28;20211;-63
2021/06/18 08:29:08;;;;;;;6.32;5.72;;;33.90;69.90;;;36.92;29.18;97706.72;5269892;28;20187;-63
2021/06/18 08:31:42;;;;;;;6.07;5.50;;;33.90;70.30;;;36.91;29.38;97706.78;5269319;28;20191;-63
2021/06/18 08:34:15;;;;;;;6.13;5.63;;;34.00;69.50;;;36.71;28.91;97702.47;5267274;28;20203;-63
2021/06/18 08:36:48;;;;;;;6.53;6.00;;;33.90;69.20;;;36.69;29.36;97702.56;5269234;28;20736;-63
2021/06/18 08:39:22;;;;;;;6.38;5.90;;;33.60;70.00;;;36.41;29.92;97712.84;5269279;28;20203;-63
2021/06/18 08:41:57;;;;;;;6.95;6.35;;;33.50;70.40;;;36.12;30.44;97712.50;5269024;28;20215;-63
2021/06/18 08:44:32;;;;;;;6.97;6.30;;;33.60;70.30;;;35.64;31.08;97711.19;5268296;28;20786;-63
2021/06/18 08:47:06;;;;;;;7.20;6.57;;;33.60;70.80;;;35.52;30.97;97711.72;5268182;28;20192;-63
2021/06/18 08:49:42;;;;;;;6.57;6.07;;;33.40;71.00;;;35.65;31.58;97702.25;5268843;28;20187;-63
2021/06/18 08:52:15;;;;;;;6.80;6.20;;;33.50;70.70;;;35.77;30.89;97699.03;5268312;28;20187;-63
2021/06/18 08:54:51;;;;;;;6.68;6.28;;;33.90;69.60;;;35.83;31.05;97700.56;5267795;28;20211;-63
2021/06/18 08:57:26;;;;;;;7.25;6.70;;;33.80;70.40;;;35.89;31.13;97704.72;5268733;28;20195;-65
2021/06/18 08:59:59;;;;;;;7.30;6.80;;;33.80;70.70;;;35.60;31.79;97699.84;5269516;28;20295;-63
2021/06/18 09:02:32;;;;;;;6.85;6.35;;;33.70;70.80;;;35.40;32.30;97703.38;5268545;28;20191;-63
2021/06/18 09:05:09;;;;;;;7.57;6.78;;;33.70;71.20;;;35.23;31.87;97695.31;5268893;28;20269;-63
2021/06/18 09:07:57;;;;;;;7.88;7.07;;;33.60;71.40;;;34.91;32.89;97700.22;5268938;28;20195;-64
2021/06/18 09:10:34;;;;;;;8.00;7.20;;;33.60;71.80;;;34.79;32.51;97695.41;5268832;28;20198;-63
2021/06/18 09:13:20;;;;;;;7.97;7.32;;;33.30;71.10;;;34.64;33.38;97693.44;5268431;28;20205;-63
2021/06/18 09:15:56;;;;;;;7.05;6.55;;;33.20;72.30;;;34.41;33.48;97689.91;5264104;28;20595;-63
2021/06/18 09:18:37;;;;;;;7.68;7.07;;;33.00;72.70;;;34.41;34.18;97691.72;5264485;28;20291;-63
2021/06/18 09:21:20;;;;;;;7.13;6.57;;;33.10;72.80;;;34.70;34.11;97685.19;5267794;28;20202;-63
2021/06/18 09:23:55;;;;;;;7.80;7.25;;;33.40;72.50;;;34.84;32.65;97682.81;5266982;28;20191;-63
2021/06/18 09:26:33;;;;;;;7.47;6.72;;;33.40;70.20;;;34.85;32.60;97684.53;5268480;28;20400;-63
2021/06/18 09:29:13;;;;;;;7.18;6.55;;;33.40;70.80;;;34.92;32.48;97693.13;5267528;28;20206;-64
2021/06/18 09:31:49;;;;;;;7.43;6.72;;;33.60;69.60;;;34.74;32.54;97685.00;5268349;28;20195;-64
2021/06/18 09:34:56;;;;;;;7.32;6.80;;;33.60;69.50;;;34.93;31.59;97679.75;5266957;28;20199;-64
2021/06/18 09:37:33;;;;;;;7.05;6.43;;;33.50;69.20;;;34.80;31.64;97688.31;5267079;28;20659;-63
2021/06/18 09:40:14;;;;;;;7.60;7.00;;;33.40;69.30;;;34.82;32.36;97687.31;5268330;28;20195;-63
2021/06/18 09:42:56;;;;;;;7.20;6.60;;;33.50;69.60;;;35.02;31.78;97673.16;5267189;28;20199;-63
2021/06/18 09:45:32;;;;;;;7.45;6.82;;;33.60;69.20;;;35.20;31.48;97674.19;5259951;28;20230;-63
2021/06/18 09:48:10;;;;;;;6.78;6.20;;;33.90;68.40;;;35.15;32.66;97670.84;5265069;28;20196;-63
2021/06/18 09:50:46;;;;;;;7.45;6.75;;;34.00;69.70;;;34.96;31.71;97668.97;5267770;28;20195;-63
2021/06/18 09:53:21;;;;;;;7.47;6.80;;;33.70;68.10;;;34.84;31.76;97671.31;5267524;28;20205;-63
2021/06/18 09:56:04;;;;;;;6.72;6.13;;;33.80;67.90;;;34.69;32.04;97673.72;5263078;28;20215;-63
2021/06/18 09:58:39;;;;;;;7.40;6.70;;;33.60;69.00;;;34.71;32.02;97671.88;5261411;28;20199;-63
2021/06/18 10:01:21;;;;;;;7.13;6.63;;;33.60;68.20;;;34.72;31.94;97670.06;5267645;28;20191;-63
2021/06/18 10:04:01;;;;;;;7.32;6.72;;;33.60;68.60;;;34.79;32.57;97666.19;5267322;28;20275;-63
2021/06/18 10:06:36;;;;;;;7.50;6.93;;;33.70;70.00;;;34.85;32.88;97665.94;5260643;28;20665;-63
2021/06/18 10:09:13;;;;;;;7.25;6.65;;;33.90;69.60;;;34.83;33.54;97659.84;5268094;28;20213;-63
2021/06/18 10:11:46;;;;;;;7.22;6.63;;;33.70;71.20;;;34.91;33.34;97656.81;5267949;28;20197;-63
2021/06/18 10:14:20;;;;;;;6.78;6.28;;;33.90;71.00;;;34.94;32.93;97660.22;5265490;28;20201;-63
2021/06/18 10:16:55;;;;;;;6.95;6.35;;;33.90;69.20;;;34.98;31.38;97660.94;5267123;28;20550;-63
2021/06/18 10:19:30;;;;;;;7.35;6.70;;;34.00;68.00;;;35.04;32.19;97662.47;5266677;28;20191;-63
2021/06/18 10:22:10;;;;;;;6.90;6.30;;;34.00;68.20;;;35.11;31.86;97669.25;5267147;28;20187;-63
2021/06/18 10:24:50;;;;;;;7.40;6.82;;;33.80;68.90;;;35.03;32.50;97660.72;5261687;28;20209;-63
2021/06/18 10:27:29;;;;;;;7.35;6.75;;;33.70;69.20;;;35.02;32.48;97659.00;5260880;28;20187;-63
2021/06/18 10:30:46;;;;;;;7.53;6.90;;;33.60;69.70;;;34.89;33.01;97662.22;5271167;28;20203;-63
2021/06/18 10:33:35;;;;;;;6.38;5.93;;;33.90;69.50;;;34.67;31.92;97656.13;5264943;28;20202;-63
2021/06/18 10:36:24;;;;;;;7.00;6.40;;;33.70;67.00;;;34.38;33.41;97660.84;5265153;28;20766;-63
2021/06/18 10:39:12;;;;;;;6.82;6.40;;;33.50;68.50;;;34.47;33.14;97652.50;5263387;28;20199;-63
2021/06/18 10:41:48;;;;;;;6.25;5.82;;;33.50;69.50;;;34.58;33.95;97656.53;5270572;28;20199;-62
2021/06/18 10:44:49;;;;;;;6.00;5.60;;;33.60;71.70;;;34.63;31.15;97650.09;5258855;28;20585;-63
2021/06/18 10:47:57;;;;;;;5.35;5.00;;;33.60;65.50;;;34.78;29.95;97651.22;5264419;28;20650;-63
2021/06/18 10:50:50;;;;;;;4.93;4.50;;;33.80;62.30;;;34.87;27.84;97647.28;5272644;28;20210;-63
2021/06/18 10:53:24;;;;;;;4.90;4.60;;;33.90;60.80;;;34.93;28.37;97645.19;5265127;28;20210;-63
2021/06/18 10:55:57;;;;;;;4.45;4.15;;;34.00;60.60;;;34.95;27.22;97645.16;5267144;28;20235;-63